ADDS METAR Data INFO
IDs: Format: Raw Decoded Include TAF

Data at: 0436 UTC 28 Jul 2017

KCOD 280356Z AUTO 24008G20KT 10SM FEW041 SCT120 18/12 A3014 RMK AO2 RAB00E53 SLP158 P0001 T01830117
KCOD 280256Z AUTO 23017G23KT 10SM BKN095 20/11 A3015 RMK AO2 PK WND 25027/0227 RAE10 SLP160 P0000 60003 T02000106 53019
KCOD 280156Z AUTO 20011KT 10SM -RA FEW025 SCT041 BKN050 21/13 A3013 RMK AO2 PK WND 23026/0132 RAB16 SLP157 P0003 T02060128
KCOD 280056Z AUTO 35007KT 10SM FEW110 26/08 A3009 RMK AO2 SLP140 T02610078
KCOD 272356Z AUTO 22006G14KT 10SM CLR 30/06 A3008 RMK AO2 SLP134 T03000061 10300 20272 58006
KCOD 272256Z AUTO 25009G19KT 10SM CLR 29/06 A3009 RMK AO2 SLP138 T02890061
KCOD 272156Z AUTO 31012G17KT 10SM FEW100 27/08 A3012 RMK AO2 LTG DSNT S SLP152 T02720078
KCOD 272056Z AUTO 26008KT 5SM HZ CLR 29/07 A3010 RMK AO2 LTG DSNT SE AND SW SLP139 T02940072 56015
KCOD 271956Z AUTO 34007KT 10SM CLR 28/10 A3011 RMK AO2 SLP144 T02780100
KCOD 271856Z AUTO 00000KT 10SM CLR 28/07 A3014 RMK AO2 SLP151 T02830067
KCOD 271756Z AUTO 13003G14KT 7SM CLR 28/07 A3015 RMK AO2 SLP157 T02830067 10283 20156 58007
KCOD 271556Z AUTO 25010G16KT 10SM CLR 25/08 A3017 RMK AO2 SLP165 T02500078
KCOD 271456Z AUTO 26007KT 10SM CLR 24/08 A3018 RMK AO2 SLP166 T02390083 50001
KCOD 271256Z AUTO 36004KT 10SM CLR 19/11 A3018 RMK AO2 SLP167 T01890106
KCOD 271156Z AUTO 00000KT 10SM CLR 17/11 A3017 RMK AO2 SLP172 60000 T01670111 10211 20156 56005
KCOD 271056Z AUTO 19007KT 10SM CLR 17/12 A3017 RMK AO2 SLP170 T01720117
KCOD 270956Z AUTO 16006KT 10SM CLR 16/12 A3018 RMK AO2 LTG DSNT E TSE0859RAE05 SLP169 P0000 T01610122
KCOD 270910Z AUTO 00000KT 10SM FEW041 18/13 A3019 RMK AO2 TSE0859RAE05 P0000
KCOD 270856Z AUTO 21003KT 10SM VCTS -RA FEW030 SCT043 BKN090 18/13 A3019 RMK AO2 LTG DSNT SE TSB34E40B41RAB35 SLP173 P0000 60000 T01780128 58002
KCOD 270840Z AUTO VRB05KT 10SM -RA FEW043 SCT050 BKN075 19/12 A3021 RMK AO2 TSB34E40RAB35 P0000
KCOD 270756Z AUTO 27006KT 10SM FEW100 20/11 A3020 RMK AO2 SLP176 T02000106
KCOD 270656Z AUTO 21003KT 10SM FEW110 20/10 A3020 RMK AO2 SLP175 T02000100 402940106
KCOD 270556Z AUTO 16006KT 10SM FEW080 19/08 A3019 RMK AO2 SLP174 T01940083 10272 20189 51009
KCOD 270456Z AUTO 00000KT 10SM CLR 22/08 A3018 RMK AO2 SLP172 T02170083
KCOD 270356Z AUTO 29005KT 10SM CLR 22/09 A3019 RMK AO2 SLP178 T02170089
KCOD 270256Z AUTO 23007KT 10SM OVC110 23/11 A3016 RMK AO2 SLP167 T02330111 55000
KCOD 270156Z AUTO 23005KT 10SM FEW120 24/10 A3015 RMK AO2 SLP166 T02440100
KCOD 270056Z AUTO 20009KT 10SM CLR 27/09 A3015 RMK AO2 SLP168 T02720094
KCOD 262356Z AUTO 18010KT 10SM FEW120 27/09 A3016 RMK AO2 SLP172 T02670094 10294 20244 56007
KCOD 262256Z AUTO 17015KT 10SM CLR 27/09 A3016 RMK AO2 SLP173 T02720094
KCOD 262156Z AUTO 00000KT 7SM CLR 29/08 A3017 RMK AO2 SLP174 T02890083
KCOD 262056Z AUTO 06008KT 10SM CLR 29/09 A3018 RMK AO2 SLP173 T02890094 58018
KCOD 261956Z AUTO VRB03KT 10SM CLR 27/09 A3021 RMK AO2 SLP185 T02670094
KCOD 261856Z AUTO 05007KT 10SM CLR 26/08 A3023 RMK AO2 SLP193 T02610083
KCOD 261756Z AUTO 16005KT 10SM CLR 24/09 A3024 RMK AO2 SLP202 T02440094 10250 20111 58004
KCOD 261656Z AUTO VRB03KT 10SM CLR 23/10 A3025 RMK AO2 SLP208 T02280100